createdAt,value
2018-01-26T00:02:03.758Z,99721.98
2018-01-26T00:04:29.984Z,99721.22
2018-01-26T00:06:56.998Z,99724.75
2018-01-26T00:09:23.358Z,99724.84
2018-01-26T00:11:50.362Z,99719.87
2018-01-26T00:14:16.601Z,99720.21
2018-01-26T00:16:42.848Z,99723.79
2018-01-26T00:19:09.073Z,99720.09
2018-01-26T00:21:35.339Z,99723.73
2018-01-26T00:24:01.615Z,99726.05
2018-01-26T00:26:27.953Z,99727.78
2018-01-26T00:28:54.235Z,99725.43
2018-01-26T00:31:20.495Z,99721.36
2018-01-26T00:33:46.759Z,99723.84
2018-01-26T00:36:13.733Z,99719.80
2018-01-26T00:38:40.011Z,99721.94
2018-01-26T00:41:06.272Z,99726.98
2018-01-26T00:43:33.273Z,99723.91
2018-01-26T00:46:00.217Z,99711.40
2018-01-26T00:48:26.468Z,99713.75
2018-01-26T00:50:52.695Z,99721.66
2018-01-26T00:53:18.942Z,99724.26
2018-01-26T00:55:45.190Z,99720.31
2018-01-26T00:58:11.448Z,99720.47
2018-01-26T01:00:37.672Z,99721.31
2018-01-26T01:03:04.510Z,99728.83
2018-01-26T01:05:30.740Z,99728.07
2018-01-26T01:07:57.913Z,99723.91
2018-01-26T01:10:24.162Z,99731.05
2018-01-26T01:12:50.440Z,99732.02
2018-01-26T01:15:16.676Z,99727.28
2018-01-26T01:17:42.909Z,99730.59
2018-01-26T01:22:42.355Z,99728.16
2018-01-26T01:25:08.599Z,99731.56
2018-01-26T01:27:35.583Z,99724.04
2018-01-26T01:30:02.656Z,99722.49
2018-01-26T01:32:28.988Z,99721.66
2018-01-26T01:34:55.256Z,99715.05
2018-01-26T01:37:21.544Z,99723.33
2018-01-26T01:39:47.840Z,99723.62
2018-01-26T01:42:14.142Z,99721.94
2018-01-26T01:44:40.456Z,99721.10
2018-01-26T01:47:06.698Z,99714.80
2018-01-26T01:49:32.974Z,99711.61
2018-01-26T01:52:00.000Z,99719.00
2018-01-26T01:54:26.359Z,99715.00
2018-01-26T01:56:53.359Z,99717.56
2018-01-26T01:59:19.648Z,99711.16
2018-01-26T02:01:45.906Z,99713.16
2018-01-26T02:04:12.179Z,99715.44
2018-01-26T02:06:39.153Z,99712.32
2018-01-26T02:09:05.383Z,99712.70
2018-01-26T02:11:31.627Z,99730.13
2018-01-26T02:13:57.851Z,99728.19
2018-01-26T02:16:24.065Z,99726.47
2018-01-26T02:18:50.348Z,99718.96
2018-01-26T02:21:16.611Z,99723.70
2018-01-26T02:23:43.567Z,99713.55
2018-01-26T02:26:09.796Z,99715.94
2018-01-26T02:28:36.169Z,99719.45
2018-01-26T02:31:02.405Z,99713.84
2018-01-26T02:33:28.662Z,99710.17
2018-01-26T02:35:55.634Z,99718.75
2018-01-26T02:38:21.873Z,99711.36
2018-01-26T02:40:48.148Z,99719.80
2018-01-26T02:43:14.772Z,99718.37
2018-01-26T02:45:41.040Z,99714.58
2018-01-26T02:48:08.075Z,99714.46
2018-01-26T02:50:34.317Z,99709.75
2018-01-26T02:53:01.287Z,99717.83
2018-01-26T02:55:28.436Z,99713.16
2018-01-26T02:57:54.690Z,99714.36
2018-01-26T03:00:20.947Z,99715.03
2018-01-26T03:02:48.759Z,99712.00
2018-01-26T03:05:15.020Z,99709.48
2018-01-26T03:07:41.297Z,99705.78
2018-01-26T03:10:08.332Z,99699.03
2018-01-26T03:12:34.577Z,99699.34
2018-01-26T03:15:01.550Z,99690.64
2018-01-26T03:17:27.881Z,99696.61
2018-01-26T03:19:54.113Z,99698.05
2018-01-26T03:22:20.372Z,99703.80
2018-01-26T03:24:46.608Z,99702.50
2018-01-26T03:27:12.878Z,99701.19
2018-01-26T03:29:39.853Z,99701.41
2018-01-26T03:32:06.074Z,99698.42
2018-01-26T03:34:32.320Z,99701.83
2018-01-26T03:36:58.562Z,99695.56
2018-01-26T03:39:24.801Z,99698.46
2018-01-26T03:41:51.037Z,99696.39
2018-01-26T03:44:17.308Z,99696.52
2018-01-26T03:46:43.527Z,99708.17
2018-01-26T03:49:10.543Z,99706.66
2018-01-26T03:51:36.842Z,99711.16
2018-01-26T03:54:03.124Z,99701.30
2018-01-26T03:56:30.083Z,99709.30
2018-01-26T03:58:57.047Z,99713.25
2018-01-26T04:01:23.271Z,99710.59
2018-01-26T04:03:49.572Z,99714.88
2018-01-26T04:06:15.825Z,99703.59
2018-01-26T04:08:42.059Z,99712.83
2018-01-26T04:11:08.271Z,99714.68
2018-01-26T04:13:35.257Z,99711.11
2018-01-26T04:16:01.522Z,99710.55
2018-01-26T04:18:27.770Z,99713.58
2018-01-26T04:20:54.812Z,99710.52
2018-01-26T04:23:21.809Z,99706.36
2018-01-26T04:25:48.036Z,99711.73
2018-01-26T04:28:14.270Z,99716.82
2018-01-26T04:30:40.524Z,99720.67
2018-01-26T04:33:06.750Z,99722.77
2018-01-26T04:35:33.026Z,99721.38
2018-01-26T04:38:00.119Z,99723.09
2018-01-26T04:40:26.353Z,99725.33
2018-01-26T04:42:53.399Z,99726.22
2018-01-26T04:45:19.641Z,99721.47
2018-01-26T04:47:46.653Z,99719.02
2018-01-26T04:50:12.879Z,99714.28
2018-01-26T04:52:39.117Z,99716.98
2018-01-26T04:55:05.483Z,99716.30
2018-01-26T04:57:31.735Z,99710.48
2018-01-26T04:59:58.740Z,99715.81
2018-01-26T05:02:24.993Z,99712.63
2018-01-26T05:04:51.244Z,99716.40
2018-01-26T05:07:17.475Z,99715.60
2018-01-26T05:09:44.471Z,99715.89
2018-01-26T05:12:11.704Z,99716.10
2018-01-26T05:14:37.957Z,99725.51
2018-01-26T05:17:05.144Z,99725.22
2018-01-26T05:19:32.140Z,99735.34
2018-01-26T05:21:58.384Z,99735.80
2018-01-26T05:24:24.686Z,99738.87
2018-01-26T05:26:50.911Z,99737.66
2018-01-26T05:29:17.208Z,99735.22
2018-01-26T05:31:44.181Z,99728.95
2018-01-26T05:34:10.742Z,99721.56
2018-01-26T05:36:37.049Z,99723.53
2018-01-26T05:39:03.379Z,99723.49
2018-01-26T05:41:35.705Z,99724.34
2018-01-26T05:44:02.001Z,99725.64
2018-01-26T05:46:28.230Z,99723.24
2018-01-26T05:48:54.512Z,99725.77
2018-01-26T05:51:21.502Z,99735.80
2018-01-26T05:53:48.376Z,99740.59
2018-01-26T05:56:15.058Z,99743.48
2018-01-26T05:58:42.047Z,99743.58
2018-01-26T06:01:08.302Z,99745.55
2018-01-26T06:03:35.209Z,99735.55
2018-01-26T06:06:01.535Z,99740.34
2018-01-26T06:08:27.799Z,99737.66
2018-01-26T06:10:54.115Z,99738.36
2018-01-26T06:13:20.396Z,99743.37
2018-01-26T06:15:47.383Z,99743.37
2018-01-26T06:18:13.833Z,99756.30
2018-01-26T06:20:40.269Z,99755.33
2018-01-26T06:23:06.519Z,99753.74
2018-01-26T06:25:32.811Z,99750.34
2018-01-26T06:27:59.103Z,99742.44
2018-01-26T06:30:25.380Z,99745.34
2018-01-26T06:32:51.655Z,99742.23
2018-01-26T06:35:18.656Z,99764.16
2018-01-26T06:37:44.912Z,99762.39
2018-01-26T06:40:11.174Z,99762.50
2018-01-26T06:42:37.416Z,99768.06
2018-01-26T06:45:03.738Z,99765.13
2018-01-26T06:47:29.966Z,99767.19
2018-01-26T06:49:57.216Z,99775.46
2018-01-26T06:52:24.226Z,99777.61
2018-01-26T06:54:50.461Z,99777.65
2018-01-26T06:57:16.698Z,99779.59
2018-01-26T06:59:42.916Z,99785.77
2018-01-26T07:02:10.030Z,99789.79
2018-01-26T07:04:36.273Z,99784.96
2018-01-26T07:07:02.562Z,99787.44
2018-01-26T07:09:28.807Z,99783.95
2018-01-26T07:11:55.043Z,99787.81
2018-01-26T07:14:21.299Z,99798.24
2018-01-26T07:16:47.549Z,99795.09
2018-01-26T07:19:13.783Z,99798.66
2018-01-26T07:21:40.753Z,99801.27
2018-01-26T07:24:06.981Z,99810.89
2018-01-26T07:26:33.249Z,99808.70
2018-01-26T07:28:59.605Z,99816.30
2018-01-26T07:31:25.859Z,99814.15
2018-01-26T07:33:52.843Z,99819.83
2018-01-26T07:36:19.052Z,99820.56
2018-01-26T07:38:45.278Z,99822.11
2018-01-26T07:41:11.552Z,99826.95
2018-01-26T07:43:37.778Z,99824.00
2018-01-26T07:46:03.991Z,99823.72
2018-01-26T07:48:30.595Z,99821.25
2018-01-26T07:50:57.559Z,99827.02
2018-01-26T07:53:23.824Z,99821.12
2018-01-26T07:55:50.090Z,99835.94
2018-01-26T07:58:17.102Z,99833.81
2018-01-26T08:00:43.496Z,99828.09
2018-01-26T08:03:09.698Z,99829.53
2018-01-26T08:05:36.686Z,99837.14
2018-01-26T08:08:02.934Z,99836.20
2018-01-26T08:10:29.190Z,99835.39
2018-01-26T08:12:55.398Z,99833.11
2018-01-26T08:15:21.636Z,99836.83
2018-01-26T08:17:47.867Z,99835.98
2018-01-26T08:20:14.903Z,99836.53
2018-01-26T08:22:41.117Z,99834.09
2018-01-26T08:25:07.359Z,99839.56
2018-01-26T08:27:33.563Z,99827.73
2018-01-26T08:29:59.811Z,99834.84
2018-01-26T08:32:26.023Z,99843.20
2018-01-26T08:34:52.327Z,99837.08
2018-01-26T08:37:18.633Z,99835.34
2018-01-26T08:39:44.887Z,99836.69
2018-01-26T08:42:11.197Z,99841.50
2018-01-26T08:44:38.170Z,99842.60
2018-01-26T08:47:04.411Z,99843.91
2018-01-26T08:49:30.694Z,99848.14
2018-01-26T08:51:56.944Z,99853.48
2018-01-26T08:54:24.010Z,99854.77
2018-01-26T08:56:50.308Z,99857.59
2018-01-26T08:59:17.368Z,99855.64
2018-01-26T09:01:44.404Z,99859.61
2018-01-26T09:04:11.448Z,99857.56
2018-01-26T09:06:37.681Z,99856.67
2018-01-26T09:09:03.971Z,99866.56
2018-01-26T09:11:30.198Z,99869.97
2018-01-26T09:13:56.469Z,99877.39
2018-01-26T09:16:23.479Z,99883.60
2018-01-26T09:18:49.747Z,99883.88
2018-01-26T09:21:16.823Z,99892.23
2018-01-26T09:23:43.064Z,99890.88
2018-01-26T09:26:09.277Z,99898.45
2018-01-26T09:28:35.497Z,99899.28
2018-01-26T09:31:02.479Z,99902.05
2018-01-26T09:33:28.728Z,99916.19
2018-01-26T09:35:54.992Z,99915.67
2018-01-26T09:38:22.035Z,99912.72
2018-01-26T09:40:48.292Z,99919.44
2018-01-26T09:43:14.554Z,99915.41
2018-01-26T09:45:40.807Z,99908.83
2018-01-26T09:48:07.084Z,99925.50
2018-01-26T09:50:33.349Z,99918.70
2018-01-26T09:52:59.603Z,99923.73
2018-01-26T09:55:25.861Z,99919.02
2018-01-26T09:57:52.088Z,99927.42
2018-01-26T10:00:19.146Z,99922.62
2018-01-26T10:02:45.360Z,99920.80
2018-01-26T10:05:12.375Z,99930.15
2018-01-26T10:07:38.639Z,99922.59
2018-01-26T10:10:05.684Z,99919.28
2018-01-26T10:12:32.921Z,99924.64
2018-01-26T10:14:59.154Z,99923.75
2018-01-26T10:17:26.117Z,99916.57
2018-01-26T10:19:53.097Z,99919.55
2018-01-26T10:22:19.345Z,99923.36
2018-01-26T10:24:45.664Z,99925.40
2018-01-26T10:27:11.977Z,99930.91
2018-01-26T10:29:38.215Z,99923.67
2018-01-26T10:32:04.499Z,99934.62
2018-01-26T10:34:31.527Z,99934.22
2018-01-26T10:36:57.804Z,99934.19
2018-01-26T10:39:24.055Z,99936.19
2018-01-26T10:41:50.330Z,99933.51
2018-01-26T10:44:16.592Z,99935.39
2018-01-26T10:46:42.825Z,99934.92
2018-01-26T10:49:09.054Z,99935.73
2018-01-26T10:51:35.316Z,99938.22
2018-01-26T10:54:01.570Z,99942.13
2018-01-26T10:56:27.804Z,99940.00
2018-01-26T10:58:54.045Z,99950.14
2018-01-26T11:01:20.294Z,99945.91
2018-01-26T11:03:46.531Z,99952.05
2018-01-26T11:06:12.799Z,99954.38
2018-01-26T11:08:39.036Z,99959.59
2018-01-26T11:11:05.329Z,99955.92
2018-01-26T11:13:32.187Z,99959.99
2018-01-26T11:15:58.494Z,99960.52
2018-01-26T11:18:24.754Z,99972.16
2018-01-26T11:20:51.018Z,99968.66
2018-01-26T11:23:18.029Z,99967.18
2018-01-26T11:25:44.318Z,99969.77
2018-01-26T11:28:10.567Z,99977.32
2018-01-26T11:30:36.844Z,99978.80
2018-01-26T11:33:03.088Z,99984.16
2018-01-26T11:35:30.069Z,99993.39
2018-01-26T11:37:56.326Z,99993.67
2018-01-26T11:40:22.563Z,99991.77
2018-01-26T11:42:48.846Z,99999.11
2018-01-26T11:45:15.083Z,100001.48
2018-01-26T11:47:41.337Z,99998.02
2018-01-26T11:50:07.573Z,100003.78
2018-01-26T11:52:33.909Z,100007.66
2018-01-26T11:55:00.218Z,100012.02
2018-01-26T11:57:26.468Z,100005.67
2018-01-26T11:59:52.728Z,100009.25
2018-01-26T12:02:19.776Z,100015.59
2018-01-26T12:04:46.756Z,100019.53
2018-01-26T12:07:13.756Z,100015.43
2018-01-26T12:09:39.998Z,100012.01
2018-01-26T12:15:05.029Z,100002.64
2018-01-26T12:17:31.642Z,100016.03
2018-01-26T12:19:58.141Z,100015.52
2018-01-26T12:22:24.463Z,100022.27
2018-01-26T12:24:50.876Z,100023.98
2018-01-26T12:27:17.868Z,100025.56
2018-01-26T12:29:44.178Z,100026.83
2018-01-26T12:32:10.502Z,100033.47
2018-01-26T12:34:37.281Z,100034.38
2018-01-26T12:37:03.689Z,100037.67
2018-01-26T12:39:29.908Z,100033.82
2018-01-26T12:41:56.160Z,100036.86
2018-01-26T12:44:22.440Z,100037.23
2018-01-26T12:46:49.457Z,100041.08
2018-01-26T12:49:15.715Z,100040.66
2018-01-26T12:51:42.691Z,100045.23
2018-01-26T12:54:08.906Z,100047.66
2018-01-26T12:56:35.155Z,100045.84
2018-01-26T12:59:01.385Z,100050.98
2018-01-26T13:01:27.720Z,100054.33
2018-01-26T13:03:53.973Z,100054.27
2018-01-26T13:06:20.307Z,100061.26
2018-01-26T13:08:46.565Z,100062.27
2018-01-26T13:11:13.583Z,100068.16
2018-01-26T13:13:39.841Z,100061.11
2018-01-26T13:16:06.847Z,100066.84
2018-01-26T13:18:33.111Z,100071.36
2018-01-26T13:20:59.423Z,100068.88
2018-01-26T13:23:25.703Z,100068.47
2018-01-26T13:25:51.976Z,100070.01
2018-01-26T13:28:18.248Z,100067.27
2018-01-26T13:30:45.242Z,100067.36
2018-01-26T13:33:11.554Z,100065.11
2018-01-26T13:35:37.844Z,100072.23
2018-01-26T13:38:04.816Z,100067.48
2018-01-26T13:40:31.092Z,100072.95
2018-01-26T13:42:57.353Z,100069.82
2018-01-26T13:45:24.345Z,100069.70
2018-01-26T13:47:50.626Z,100072.13
2018-01-26T13:50:17.632Z,100073.27
2018-01-26T13:52:43.896Z,100070.78
2018-01-26T13:55:10.172Z,100077.37
2018-01-26T13:57:36.423Z,100084.23
2018-01-26T14:00:02.665Z,100085.79
2018-01-26T14:02:28.933Z,100086.42
2018-01-26T14:04:55.906Z,100087.91
2018-01-26T14:07:22.167Z,100092.16
2018-01-26T14:09:49.143Z,100092.52
2018-01-26T14:12:16.177Z,100093.44
2018-01-26T14:14:43.233Z,100102.91
2018-01-26T14:17:09.508Z,100104.01
2018-01-26T14:19:35.752Z,100106.99
2018-01-26T14:22:02.020Z,100108.37
2018-01-26T14:24:28.279Z,100112.45
2018-01-26T14:27:01.499Z,100116.95
2018-01-26T14:29:27.813Z,100114.47
2018-01-26T14:31:54.133Z,100118.34
2018-01-26T14:34:20.397Z,100122.35
2018-01-26T14:36:46.654Z,100131.61
2018-01-26T14:39:12.895Z,100122.03
2018-01-26T14:41:40.891Z,100136.58
2018-01-26T14:44:07.123Z,100137.84
2018-01-26T14:46:33.352Z,100144.25
2018-01-26T14:48:59.626Z,100143.92
2018-01-26T14:51:25.871Z,100149.80
2018-01-26T14:53:52.144Z,100148.78
2018-01-26T14:56:18.406Z,100155.34
2018-01-26T14:58:44.668Z,100164.98
2018-01-26T15:01:10.957Z,100170.17
2018-01-26T15:03:37.270Z,100170.59
2018-01-26T15:06:03.552Z,100178.79
2018-01-26T15:08:29.812Z,100189.19
2018-01-26T15:10:56.828Z,100182.31
2018-01-26T15:13:23.111Z,100189.75
2018-01-26T15:15:49.398Z,100196.20
2018-01-26T15:18:17.424Z,100197.84
2018-01-26T15:20:43.711Z,100192.03
2018-01-26T15:23:10.753Z,100202.09
2018-01-26T15:25:41.564Z,100203.17
2018-01-26T15:28:07.828Z,100204.02
2018-01-26T15:30:35.204Z,100205.65
2018-01-26T15:33:01.485Z,100208.47
2018-01-26T15:35:27.748Z,100211.41
2018-01-26T15:37:54.791Z,100223.09
2018-01-26T15:40:21.775Z,100221.27
2018-01-26T15:42:48.600Z,100226.09
2018-01-26T15:45:14.887Z,100229.83
2018-01-26T15:47:41.152Z,100234.66
2018-01-26T15:50:08.487Z,100235.62
2018-01-26T15:52:37.608Z,100238.09
2018-01-26T15:55:03.900Z,100246.58
2018-01-26T15:57:30.145Z,100247.14
2018-01-26T15:59:57.160Z,100251.70
2018-01-26T16:02:23.439Z,100257.55
2018-01-26T16:04:49.685Z,100257.20
2018-01-26T16:07:15.982Z,100259.06
2018-01-26T16:09:42.995Z,100258.16
2018-01-26T16:12:11.324Z,100262.28
2018-01-26T16:14:37.682Z,100259.80
2018-01-26T16:17:04.000Z,100272.82
2018-01-26T16:19:30.264Z,100264.36
2018-01-26T16:21:56.533Z,100266.84
2018-01-26T16:24:23.539Z,100275.72
2018-01-26T16:26:53.731Z,100277.71
2018-01-26T16:29:19.979Z,100284.52
2018-01-26T16:31:46.207Z,100287.00
2018-01-26T16:34:12.447Z,100289.48
2018-01-26T16:36:38.679Z,100288.47
2018-01-26T16:39:04.965Z,100298.22
2018-01-26T16:41:31.228Z,100295.06
2018-01-26T16:44:03.913Z,100299.22
2018-01-26T16:46:30.177Z,100298.37
2018-01-26T16:48:57.229Z,100304.28
2018-01-26T16:51:24.325Z,100305.50
2018-01-26T16:53:50.584Z,100305.58
2018-01-26T16:56:16.854Z,100324.27
2018-01-26T16:58:45.931Z,100323.68
2018-01-26T17:01:12.931Z,100322.07
2018-01-26T17:03:39.199Z,100329.16
2018-01-26T17:06:05.419Z,100328.74
2018-01-26T17:08:39.010Z,100326.50
2018-01-26T17:11:05.249Z,100329.91
2018-01-26T17:13:31.501Z,100333.67
2018-01-26T17:15:58.496Z,100340.12
2018-01-26T17:18:26.803Z,100345.33
2018-01-26T17:20:53.157Z,100350.98
2018-01-26T17:23:20.162Z,100357.69
2018-01-26T17:25:46.469Z,100360.59
2018-01-26T17:28:13.460Z,100360.00
2018-01-26T17:30:39.760Z,100365.91
2018-01-26T17:33:06.060Z,100369.20
2018-01-26T17:35:33.399Z,100360.09
2018-01-26T17:38:00.446Z,100372.87
2018-01-26T17:40:27.447Z,100373.16
2018-01-26T17:42:53.719Z,100366.12
2018-01-26T17:45:20.733Z,100368.56
2018-01-26T17:47:49.051Z,100371.86
2018-01-26T17:50:15.348Z,100371.77
2018-01-26T17:52:41.693Z,100377.69
2018-01-26T17:55:11.622Z,100380.13
2018-01-26T17:57:39.155Z,100378.86
2018-01-26T18:00:05.435Z,100387.75
2018-01-26T18:02:31.796Z,100387.71
2018-01-26T18:04:58.074Z,100382.10
2018-01-26T18:07:25.113Z,100389.11
2018-01-26T18:09:51.481Z,100398.81
2018-01-26T18:12:17.769Z,100398.05
2018-01-26T18:14:44.071Z,100403.20
2018-01-26T18:17:10.365Z,100406.10
2018-01-26T18:19:36.667Z,100404.56
2018-01-26T18:22:03.716Z,100417.27
2018-01-26T18:24:30.745Z,100410.97
2018-01-26T18:26:57.022Z,100417.48
2018-01-26T18:29:23.263Z,100424.56
2018-01-26T18:31:49.563Z,100430.44
2018-01-26T18:34:16.576Z,100432.19
2018-01-26T18:36:42.834Z,100437.41
2018-01-26T18:39:09.124Z,100439.02
2018-01-26T18:41:35.404Z,100435.52
2018-01-26T18:44:02.420Z,100442.45
2018-01-26T18:46:28.708Z,100445.70
2018-01-26T18:48:54.982Z,100445.22
2018-01-26T18:51:21.255Z,100453.75
2018-01-26T18:53:49.615Z,100449.84
2018-01-26T18:56:17.683Z,100444.62
2018-01-26T18:58:44.691Z,100429.28
2018-01-26T19:01:11.791Z,100444.75
2018-01-26T19:03:38.781Z,100444.09
2018-01-26T19:06:05.036Z,100450.02
2018-01-26T19:08:31.283Z,100463.49
2018-01-26T19:10:58.287Z,100465.48
2018-01-26T19:13:25.628Z,100473.67
2018-01-26T19:15:56.366Z,100473.91
2018-01-26T19:18:22.651Z,100480.75
2018-01-26T19:20:49.673Z,100484.70
2018-01-26T19:23:15.947Z,100489.16
2018-01-26T19:25:43.349Z,100492.48
2018-01-26T19:28:09.595Z,100493.60
2018-01-26T19:30:35.853Z,100503.38
2018-01-26T19:33:03.224Z,100509.86
2018-01-26T19:35:34.234Z,100512.20
2018-01-26T19:38:00.484Z,100511.81
2018-01-26T19:40:28.100Z,100505.67
2018-01-26T19:42:54.429Z,100515.55
2018-01-26T19:45:26.911Z,100520.46
2018-01-26T19:48:08.596Z,100525.23
2018-01-26T19:50:34.858Z,100514.36
2018-01-26T19:53:02.992Z,100528.34
2018-01-26T19:55:29.241Z,100530.86
2018-01-26T19:57:55.525Z,100522.78
2018-01-26T20:00:21.802Z,100520.20
2018-01-26T20:02:48.175Z,100527.39
2018-01-26T20:05:40.127Z,100523.98
2018-01-26T20:08:28.084Z,100519.68
2018-01-26T20:10:54.352Z,100531.17
2018-01-26T20:13:27.289Z,100529.18
2018-01-26T20:15:53.573Z,100536.25
2018-01-26T20:18:20.553Z,100540.95
2018-01-26T20:20:46.817Z,100535.34
2018-01-26T20:23:13.074Z,100537.38
2018-01-26T20:25:39.336Z,100539.33
2018-01-26T20:28:05.620Z,100544.78
2018-01-26T20:30:32.053Z,100556.58
2018-01-26T20:32:58.301Z,100560.08
2018-01-26T20:35:25.347Z,100557.59
2018-01-26T20:37:52.391Z,100555.86
2018-01-26T20:40:19.386Z,100562.24
2018-01-26T20:42:45.688Z,100559.44
2018-01-26T20:45:12.756Z,100554.75
2018-01-26T20:47:39.068Z,100560.93
2018-01-26T20:50:06.053Z,100565.27
2018-01-26T20:52:32.401Z,100561.23
2018-01-26T20:54:58.799Z,100570.69
2018-01-26T20:57:25.119Z,100567.23
2018-01-26T20:59:51.401Z,100569.39
2018-01-26T21:02:17.700Z,100570.61
2018-01-26T21:04:43.985Z,100569.80
2018-01-26T21:07:11.040Z,100567.69
2018-01-26T21:09:38.113Z,100572.03
2018-01-26T21:12:04.595Z,100576.94
2018-01-26T21:14:30.899Z,100582.24
2018-01-26T21:16:57.181Z,100584.56
2018-01-26T21:19:24.207Z,100588.22
2018-01-26T21:21:50.464Z,100593.36
2018-01-26T21:24:17.442Z,100594.43
2018-01-26T21:26:43.752Z,100595.31
2018-01-26T21:29:10.139Z,100595.30
2018-01-26T21:31:36.412Z,100594.09
2018-01-26T21:34:03.438Z,100598.14
2018-01-26T21:36:29.844Z,100600.78
2018-01-26T21:38:56.101Z,100603.75
2018-01-26T21:41:23.117Z,100596.87
2018-01-26T21:43:50.201Z,100610.77
2018-01-26T21:46:17.246Z,100610.35
2018-01-26T21:48:44.230Z,100600.83
2018-01-26T21:51:10.497Z,100615.16
2018-01-26T21:53:36.769Z,100622.34
2018-01-26T21:56:03.081Z,100629.14
2018-01-26T21:58:29.439Z,100632.75
2018-01-26T22:00:55.747Z,100642.03
2018-01-26T22:03:22.812Z,100648.89
2018-01-26T22:05:49.846Z,100646.15
2018-01-26T22:08:16.910Z,100645.27
2018-01-26T22:10:43.955Z,100648.30
2018-01-26T22:13:11.013Z,100657.05
2018-01-26T22:15:37.361Z,100653.41
2018-01-26T22:18:03.620Z,100658.81
2018-01-26T22:20:29.877Z,100664.06
2018-01-26T22:22:56.123Z,100665.62
2018-01-26T22:25:23.161Z,100669.88
2018-01-26T22:27:50.165Z,100661.12
2018-01-26T22:30:16.554Z,100668.63
2018-01-26T22:32:43.567Z,100674.16
2018-01-26T22:35:10.841Z,100680.48
2018-01-26T22:37:37.803Z,100691.41
2018-01-26T22:40:04.156Z,100693.19
2018-01-26T22:42:30.377Z,100694.51
2018-01-26T22:44:56.691Z,100698.33
2018-01-26T22:47:23.704Z,100706.41
2018-01-26T22:49:50.020Z,100700.20
2018-01-26T22:52:16.272Z,100707.05
2018-01-26T22:54:43.308Z,100714.33
2018-01-26T22:57:09.530Z,100716.52
2018-01-26T22:59:35.771Z,100713.81
2018-01-26T23:02:01.998Z,100716.81
2018-01-26T23:04:28.244Z,100720.66
2018-01-26T23:06:56.238Z,100721.62
2018-01-26T23:09:22.481Z,100731.81
2018-01-26T23:11:48.750Z,100726.20
2018-01-26T23:14:15.175Z,100733.91
2018-01-26T23:16:41.473Z,100734.96
2018-01-26T23:19:07.710Z,100744.49
2018-01-26T23:21:33.963Z,100746.67
2018-01-26T23:24:00.260Z,100749.19
2018-01-26T23:26:26.533Z,100748.09
2018-01-26T23:28:52.787Z,100745.23
2018-01-26T23:31:19.106Z,100753.00
2018-01-26T23:33:45.531Z,100750.77
2018-01-26T23:36:11.867Z,100754.66
2018-01-26T23:38:38.091Z,100761.08
2018-01-26T23:41:04.347Z,100764.30
2018-01-26T23:43:31.331Z,100763.66
2018-01-26T23:45:57.584Z,100769.23
2018-01-26T23:48:23.837Z,100763.20
2018-01-26T23:50:50.110Z,100766.02
2018-01-26T23:53:16.345Z,100772.23
2018-01-26T23:55:42.606Z,100769.94
2018-01-26T23:58:08.874Z,100770.74
